Time;durP1;ratioP1;P1;durP2;ratioP2;P2;SDS_P1;SDS_P2;PMS_P1;PMS_P2;Temp;Humidity;BMP_temperature;BMP_pressure;BME280_temperature;BME280_humidity;BME280_pressure;Samples;Min_cycle;Max_cycle;Signal;HPM_P1;HPM_P2
2022/11/11 00:01:02;;;;;;;5.07;1.17;;;15.70;99.90;;;;;;4984130;28;20117;-77
2022/11/11 00:03:29;;;;;;;3.78;1.40;;;15.60;99.90;;;;;;4979438;28;20043;-77
2022/11/11 00:06:00;;;;;;;3.55;1.27;;;15.60;99.90;;;;;;4978609;28;20042;-77
2022/11/11 00:08:27;;;;;;;4.68;1.40;;;15.60;99.90;;;;;;4978208;28;20034;-78
2022/11/11 00:10:58;;;;;;;3.85;1.20;;;15.60;99.90;;;;;;4982942;28;20038;-77
2022/11/11 00:13:24;;;;;;;4.63;1.40;;;15.50;99.90;;;;;;4984901;28;20049;-77
2022/11/11 00:15:50;;;;;;;3.63;1.35;;;15.60;99.90;;;;;;4987215;28;20030;-77
2022/11/11 00:26:28;;;;;;;4.22;1.38;;;15.50;99.90;;;;;;4982107;28;20050;-79
2022/11/11 00:28:54;;;;;;;8.30;1.65;;;15.50;99.90;;;;;;4984592;28;20035;-77
2022/11/11 00:31:20;;;;;;;4.95;1.38;;;15.60;99.90;;;;;;4980893;28;20112;-77
2022/11/11 00:33:46;;;;;;;4.07;1.50;;;15.60;99.90;;;;;;4982925;28;20493;-79
2022/11/11 00:36:11;;;;;;;4.53;1.60;;;15.70;99.90;;;;;;4979390;28;20023;-78
2022/11/11 00:38:46;;;;;;;4.60;1.20;;;15.70;99.90;;;;;;4984229;28;20046;-78
2022/11/11 00:41:24;;;;;;;5.10;1.85;;;15.70;99.90;;;;;;4985918;28;20121;-77
2022/11/11 00:43:50;;;;;;;5.35;1.63;;;15.60;99.90;;;;;;4983952;28;20030;-78
2022/11/11 00:51:45;;;;;;;4.43;1.30;;;15.50;99.90;;;;;;4980227;28;20181;-78
2022/11/11 00:54:11;;;;;;;3.85;1.23;;;15.50;99.90;;;;;;4982753;28;20756;-78
2022/11/11 00:56:37;;;;;;;4.38;1.45;;;15.40;99.90;;;;;;4978104;28;20514;-77
2022/11/11 00:59:05;;;;;;;4.07;1.40;;;15.40;99.90;;;;;;4990252;28;20038;-78
2022/11/11 01:01:33;;;;;;;3.35;1.27;;;15.40;99.90;;;;;;4985812;28;20050;-77
2022/11/11 01:03:59;;;;;;;4.15;1.33;;;15.40;99.90;;;;;;4980390;28;20046;-77
2022/11/11 01:06:25;;;;;;;4.72;1.52;;;15.30;99.90;;;;;;4976308;28;20049;-77
2022/11/11 01:08:51;;;;;;;4.18;1.63;;;15.30;99.90;;;;;;4985867;28;20089;-77
2022/11/11 01:11:20;;;;;;;5.15;1.40;;;15.30;99.90;;;;;;4986751;28;20038;-77
2022/11/11 01:13:46;;;;;;;6.13;1.63;;;15.30;99.90;;;;;;4988339;28;20044;-76
2022/11/11 01:16:15;;;;;;;4.38;1.60;;;15.30;99.90;;;;;;4998719;28;20031;-77
2022/11/11 01:18:41;;;;;;;4.00;1.30;;;15.30;99.90;;;;;;4969196;28;20047;-77
2022/11/11 01:21:16;;;;;;;4.05;1.63;;;15.30;99.90;;;;;;4969252;28;20474;-76
2022/11/11 01:23:47;;;;;;;4.03;1.48;;;15.30;99.90;;;;;;4996245;28;20038;-77
2022/11/11 01:26:22;;;;;;;2.92;1.08;;;15.30;99.90;;;;;;4982296;28;20117;-78
2022/11/11 01:28:53;;;;;;;5.07;1.17;;;15.40;99.90;;;;;;4980416;28;20038;-77
2022/11/11 01:31:21;;;;;;;2.95;0.90;;;15.40;99.90;;;;;;4954760;28;20049;-77
2022/11/11 01:33:47;;;;;;;3.97;1.10;;;15.40;99.90;;;;;;4977430;28;20074;-76
2022/11/11 01:36:21;;;;;;;6.07;1.20;;;15.50;99.90;;;;;;4944369;28;20042;-77
2022/11/11 01:38:56;;;;;;;5.57;1.10;;;15.50;99.90;;;;;;4966298;28;20259;-76
2022/11/11 01:41:31;;;;;;;2.95;0.90;;;15.50;99.90;;;;;;4966016;28;20094;-76
2022/11/11 01:44:01;;;;;;;4.32;1.00;;;15.60;99.90;;;;;;4966258;28;20094;-77
2022/11/11 01:46:29;;;;;;;2.60;0.98;;;15.60;99.90;;;;;;4964100;28;20073;-77
2022/11/11 01:49:28;;;;;;;3.45;0.88;;;15.60;99.90;;;;;;4957440;28;20030;-76
2022/11/11 01:52:05;;;;;;;2.67;0.82;;;15.60;99.90;;;;;;4960089;28;20101;-77
2022/11/11 01:54:50;;;;;;;3.33;0.77;;;15.50;99.90;;;;;;4986996;28;20070;-77
2022/11/11 01:57:28;;;;;;;;;;;15.50;99.90;;;;;;4979857;28;20502;-77
2022/11/11 02:00:06;;;;;;;3.28;1.02;;;15.60;99.90;;;;;;4982618;28;19925;-78
2022/11/11 02:02:45;;;;;;;4.30;1.00;;;15.60;99.90;;;;;;4985386;28;20453;-78
2022/11/11 02:08:04;;;;;;;5.47;1.00;;;15.60;99.90;;;;;;4987786;28;20497;-77
2022/11/11 02:10:32;;;;;;;5.78;1.10;;;15.60;99.90;;;;;;4969676;28;20050;-77
2022/11/11 02:15:44;;;;;;;4.25;1.38;;;15.60;99.90;;;;;;4982894;28;20061;-78
2022/11/11 02:18:11;;;;;;;3.45;1.02;;;15.50;99.90;;;;;;4982348;28;20593;-77
2022/11/11 02:20:41;;;;;;;3.90;1.20;;;15.50;99.90;;;;;;4983080;28;20653;-76
2022/11/11 02:23:34;;;;;;;6.10;1.20;;;15.50;99.90;;;;;;4986466;28;20097;-77
2022/11/11 02:26:02;;;;;;;3.10;0.98;;;15.50;99.90;;;;;;4984995;28;20039;-78
2022/11/11 02:28:31;;;;;;;3.58;1.35;;;15.50;99.90;;;;;;4983307;28;20259;-78
2022/11/11 02:30:57;;;;;;;3.53;1.33;;;15.40;99.90;;;;;;4989315;28;20034;-77
2022/11/11 02:33:22;;;;;;;4.28;1.00;;;15.40;99.90;;;;;;4983595;28;20178;-76
2022/11/11 02:35:56;;;;;;;3.35;1.23;;;15.40;99.90;;;;;;4979685;28;20037;-77
2022/11/11 02:38:24;;;;;;;3.35;1.20;;;15.40;99.90;;;;;;4981147;28;20050;-77
2022/11/11 02:43:35;;;;;;;3.35;1.30;;;15.30;99.90;;;;;;4984440;28;20414;-78
2022/11/11 02:46:04;;;;;;;4.20;1.20;;;15.30;99.90;;;;;;4984479;28;20038;-77
2022/11/11 02:48:31;;;;;;;4.00;0.90;;;15.30;99.90;;;;;;4984624;28;20093;-77
2022/11/11 02:50:57;;;;;;;4.25;1.30;;;15.30;99.90;;;;;;4980245;28;20043;-77
2022/11/11 02:53:23;;;;;;;3.30;1.52;;;15.30;99.90;;;;;;4981721;28;20125;-77
2022/11/11 02:55:49;;;;;;;2.15;0.80;;;15.30;99.90;;;;;;4986462;28;20026;-77
2022/11/11 02:58:16;;;;;;;3.72;1.02;;;15.30;99.90;;;;;;4982443;28;20048;-77
2022/11/11 03:00:42;;;;;;;;;;;15.30;99.90;;;;;;4981717;28;20084;-77
2022/11/11 03:03:09;;;;;;;4.28;1.30;;;15.20;99.90;;;;;;4979204;28;19913;-76
2022/11/11 03:05:35;;;;;;;;;;;15.20;99.90;;;;;;4982027;28;20037;-76
2022/11/11 03:08:01;;;;;;;5.30;1.40;;;15.30;99.90;;;;;;4995030;28;19914;-77
2022/11/11 03:10:27;;;;;;;4.72;1.10;;;15.20;99.90;;;;;;4984437;28;20121;-77
2022/11/11 03:12:54;;;;;;;4.15;1.20;;;15.20;99.90;;;;;;4978412;28;20401;-77
2022/11/11 03:15:20;;;;;;;3.83;1.02;;;15.20;99.90;;;;;;4979286;28;20035;-77
2022/11/11 03:17:48;;;;;;;4.15;1.17;;;15.20;99.90;;;;;;4980831;28;20046;-77
2022/11/11 03:23:03;;;;;;;3.70;1.60;;;15.20;99.90;;;;;;4981287;28;20426;-78
2022/11/11 03:25:37;;;;;;;3.28;1.02;;;15.20;99.90;;;;;;4978469;28;20074;-77
2022/11/11 03:28:17;;;;;;;5.05;1.88;;;15.20;99.90;;;;;;4993996;28;20458;-78
2022/11/11 03:30:45;;;;;;;7.05;1.42;;;15.10;99.90;;;;;;4981861;28;20121;-77
2022/11/11 03:33:14;;;;;;;4.30;1.27;;;15.10;99.90;;;;;;4980970;28;20031;-76
2022/11/11 03:35:41;;;;;;;5.97;1.45;;;15.10;99.90;;;;;;4997761;28;20044;-77
2022/11/11 03:38:23;;;;;;;4.20;1.20;;;15.10;99.90;;;;;;4977414;28;20080;-77
2022/11/11 03:40:56;;;;;;;4.47;1.35;;;15.20;99.90;;;;;;4984495;28;20528;-76
2022/11/11 03:43:25;;;;;;;4.60;1.25;;;15.30;99.90;;;;;;4978251;28;20037;-77
2022/11/11 03:45:53;;;;;;;5.80;1.40;;;15.20;99.90;;;;;;4981905;28;20058;-77
2022/11/11 03:48:19;;;;;;;5.25;1.17;;;15.20;99.90;;;;;;4985420;28;20579;-76
2022/11/11 03:50:47;;;;;;;5.18;1.48;;;15.30;99.90;;;;;;4984167;28;20070;-77
2022/11/11 03:53:13;;;;;;;7.18;1.27;;;15.30;99.90;;;;;;4979829;28;20097;-78
2022/11/11 03:55:40;;;;;;;4.30;1.20;;;15.30;99.90;;;;;;4982936;28;20138;-76
2022/11/11 03:58:06;;;;;;;4.05;1.13;;;15.30;99.90;;;;;;4980303;28;20039;-75
2022/11/11 04:00:33;;;;;;;4.38;1.40;;;15.30;99.90;;;;;;4995198;28;20035;-77
2022/11/11 04:11:25;;;;;;;3.50;1.00;;;15.30;99.90;;;;;;4978544;28;20412;-78
2022/11/11 04:16:39;;;;;;;4.43;1.30;;;15.40;99.90;;;;;;4983959;28;20053;-77
2022/11/11 04:21:50;;;;;;;5.72;1.30;;;15.40;99.90;;;;;;4980101;28;20029;-77
2022/11/11 04:27:10;;;;;;;5.15;1.45;;;15.40;99.90;;;;;;4980681;28;20030;-78
2022/11/11 04:29:37;;;;;;;4.40;1.17;;;15.40;99.90;;;;;;4994150;28;20061;-77
2022/11/11 04:35:13;;;;;;;5.28;1.02;;;15.40;99.90;;;;;;5003872;28;19913;-77
2022/11/11 04:37:51;;;;;;;4.20;1.40;;;15.40;99.90;;;;;;5005747;28;20042;-76
2022/11/11 04:43:03;;;;;;;5.10;1.25;;;15.40;99.90;;;;;;4986056;28;20096;-76
2022/11/11 04:45:32;;;;;;;5.93;1.20;;;15.30;99.90;;;;;;4983821;28;20034;-76
2022/11/11 04:48:06;;;;;;;5.25;1.52;;;15.30;99.90;;;;;;4982683;28;20041;-77
2022/11/11 04:50:40;;;;;;;4.63;1.23;;;15.40;99.90;;;;;;4982044;28;20030;-77
2022/11/11 04:53:11;;;;;;;5.22;1.40;;;15.40;99.90;;;;;;4980228;28;20082;-77
2022/11/11 04:58:31;;;;;;;4.72;1.15;;;15.40;99.90;;;;;;4982777;28;20062;-77
2022/11/11 05:00:58;;;;;;;7.82;1.70;;;15.40;99.90;;;;;;4986130;28;20121;-77
2022/11/11 05:03:24;;;;;;;4.25;1.17;;;15.40;99.90;;;;;;4983979;28;20487;-76
2022/11/11 05:08:56;;;;;;;6.78;1.40;;;15.40;99.90;;;;;;4983776;28;20100;-77
2022/11/11 05:11:23;;;;;;;5.22;1.27;;;15.40;99.90;;;;;;4981812;28;20064;-78
2022/11/11 05:22:37;;;;;;;3.80;1.23;;;15.40;99.90;;;;;;4986419;28;20481;-77
2022/11/11 05:27:49;;;;;;;3.45;1.02;;;15.40;99.90;;;;;;4986126;28;20041;-77
2022/11/11 05:30:16;;;;;;;9.45;2.83;;;15.40;99.90;;;;;;4984917;28;20434;-77
2022/11/11 05:32:42;;;;;;;;;;;15.40;99.90;;;;;;4985489;28;20058;-76
2022/11/11 05:35:09;;;;;;;4.63;1.67;;;15.40;99.90;;;;;;4981612;28;20032;-77
2022/11/11 05:37:35;;;;;;;3.53;1.35;;;15.40;99.90;;;;;;4968847;28;20042;-78
2022/11/11 05:40:01;;;;;;;3.90;1.05;;;15.40;99.90;;;;;;4969009;28;20054;-78
2022/11/11 05:42:26;;;;;;;5.90;1.33;;;15.50;99.90;;;;;;4959756;28;20039;-78
2022/11/11 05:44:53;;;;;;;6.75;1.60;;;15.50;99.90;;;;;;4985986;28;20035;-77
2022/11/11 05:47:18;;;;;;;3.55;1.17;;;15.50;99.90;;;;;;4978548;28;20035;-77
2022/11/11 05:49:44;;;;;;;3.90;1.15;;;15.50;99.90;;;;;;4982162;28;20053;-77
2022/11/11 05:52:12;;;;;;;3.47;1.10;;;15.60;99.90;;;;;;4988073;28;20074;-77
2022/11/11 05:54:37;;;;;;;4.50;1.50;;;15.70;99.90;;;;;;4985499;28;20046;-77
2022/11/11 05:57:03;;;;;;;3.50;1.50;;;15.80;99.90;;;;;;4984150;28;20390;-77
2022/11/11 05:59:29;;;;;;;4.65;1.10;;;15.70;99.90;;;;;;4988617;28;20046;-77
2022/11/11 06:01:55;;;;;;;4.07;1.20;;;15.80;99.90;;;;;;4982732;28;20043;-76
2022/11/11 06:04:22;;;;;;;5.10;1.20;;;15.70;99.90;;;;;;4987674;28;20085;-77
2022/11/11 06:06:47;;;;;;;4.22;1.38;;;15.70;99.90;;;;;;4985936;28;20046;-78
2022/11/11 06:09:13;;;;;;;5.18;1.23;;;15.70;99.90;;;;;;4987213;28;20043;-77
2022/11/11 06:11:39;;;;;;;6.60;1.40;;;15.90;99.90;;;;;;4986192;28;20512;-77
2022/11/11 06:14:05;;;;;;;6.45;1.40;;;15.80;99.90;;;;;;4985547;28;20039;-78
2022/11/11 06:16:31;;;;;;;4.72;1.33;;;15.80;99.90;;;;;;4974233;28;20050;-77
2022/11/11 06:18:58;;;;;;;5.35;1.35;;;15.90;99.90;;;;;;4978363;28;20089;-78
2022/11/11 06:21:26;;;;;;;5.60;1.20;;;15.90;99.90;;;;;;4997860;28;20071;-76
2022/11/11 06:23:52;;;;;;;6.85;1.55;;;15.90;99.90;;;;;;4985840;28;20037;-77
2022/11/11 06:26:18;;;;;;;4.03;1.10;;;15.80;99.90;;;;;;4999498;28;20042;-77
2022/11/11 06:28:56;;;;;;;7.35;2.15;;;15.80;99.90;;;;;;4986323;28;20393;-77
2022/11/11 06:31:26;;;;;;;4.88;1.98;;;15.90;99.90;;;;;;4985872;28;20403;-77
2022/11/11 06:33:52;;;;;;;6.50;1.40;;;15.90;99.90;;;;;;4985518;28;20042;-77
2022/11/11 06:36:20;;;;;;;7.55;1.50;;;15.90;99.90;;;;;;4986141;28;20038;-77
2022/11/11 06:38:46;;;;;;;4.57;1.23;;;15.90;99.90;;;;;;4974556;28;20049;-78
2022/11/11 06:41:12;;;;;;;5.07;1.55;;;15.90;99.90;;;;;;4978505;28;20029;-77
2022/11/11 06:43:39;;;;;;;4.75;1.40;;;15.90;99.90;;;;;;4980180;28;20045;-77
2022/11/11 06:46:07;;;;;;;6.10;1.70;;;15.90;99.90;;;;;;4987565;28;20124;-77
2022/11/11 06:48:32;;;;;;;5.07;1.55;;;15.80;99.90;;;;;;4981970;28;20050;-77
2022/11/11 06:51:03;;;;;;;10.10;1.52;;;15.90;99.90;;;;;;4974750;28;20043;-77
2022/11/11 06:53:29;;;;;;;7.63;1.88;;;15.80;99.90;;;;;;4986542;28;20046;-78
2022/11/11 06:55:57;;;;;;;7.00;1.77;;;15.80;99.90;;;;;;4986756;28;20041;-76
2022/11/11 06:58:25;;;;;;;4.97;1.40;;;15.80;99.90;;;;;;4984594;28;20047;-77
2022/11/11 07:00:50;;;;;;;8.73;1.60;;;15.80;99.90;;;;;;4985903;28;20034;-78
2022/11/11 07:03:21;;;;;;;5.10;2.40;;;15.80;99.90;;;;;;4992375;28;20409;-76
2022/11/11 07:05:47;;;;;;;6.07;1.80;;;15.70;99.90;;;;;;4970104;28;20046;-77
2022/11/11 07:08:15;;;;;;;9.25;2.50;;;15.70;99.90;;;;;;4986305;28;20370;-77
2022/11/11 07:10:44;;;;;;;5.88;2.20;;;15.70;99.90;;;;;;4982635;28;20456;-77
2022/11/11 07:13:10;;;;;;;4.47;1.52;;;15.70;99.90;;;;;;5000346;28;20030;-76
2022/11/11 07:15:37;;;;;;;6.22;2.00;;;15.70;99.90;;;;;;4983163;28;20117;-78
2022/11/11 07:18:02;;;;;;;8.82;2.40;;;15.70;99.90;;;;;;4966617;28;20039;-77
2022/11/11 07:20:29;;;;;;;6.38;2.20;;;15.80;99.90;;;;;;4968254;28;20154;-77
2022/11/11 07:22:55;;;;;;;6.88;1.98;;;15.90;99.90;;;;;;4982961;28;20041;-77
2022/11/11 07:25:21;;;;;;;7.25;1.80;;;15.90;99.90;;;;;;4985189;28;20031;-78
2022/11/11 07:27:46;;;;;;;7.70;1.80;;;16.00;99.90;;;;;;4979945;28;20053;-77
2022/11/11 07:30:12;;;;;;;8.55;2.00;;;16.00;99.90;;;;;;4981818;28;20074;-76
2022/11/11 07:32:49;;;;;;;5.82;2.05;;;16.10;99.90;;;;;;4987797;28;20129;-77
2022/11/11 07:35:16;;;;;;;5.68;1.90;;;16.20;99.90;;;;;;4984173;28;20034;-77
2022/11/11 07:37:43;;;;;;;4.65;2.03;;;16.30;99.90;;;;;;4984715;28;20479;-78
2022/11/11 07:40:11;;;;;;;4.68;1.73;;;16.40;99.90;;;;;;4985316;28;20046;-77
2022/11/11 07:42:37;;;;;;;7.72;2.13;;;16.50;99.90;;;;;;4999470;28;20042;-78
2022/11/11 07:45:04;;;;;;;6.63;2.00;;;16.50;99.90;;;;;;4972989;28;20027;-78
2022/11/11 07:47:30;;;;;;;5.38;1.55;;;16.60;99.90;;;;;;4993007;28;20506;-78
2022/11/11 07:49:56;;;;;;;6.82;1.60;;;16.70;99.90;;;;;;4982140;28;20034;-77
2022/11/11 07:52:22;;;;;;;6.47;1.67;;;16.70;99.90;;;;;;4984887;28;20038;-77
2022/11/11 07:54:50;;;;;;;6.45;1.70;;;16.80;99.90;;;;;;4982273;28;20069;-77
2022/11/11 07:57:15;;;;;;;5.40;1.58;;;16.90;99.90;;;;;;4984451;28;20064;-77
2022/11/11 07:59:41;;;;;;;5.72;2.60;;;16.90;99.90;;;;;;4981190;28;20399;-78
2022/11/11 08:02:12;;;;;;;5.78;2.40;;;17.00;99.90;;;;;;4977775;28;20307;-77
2022/11/11 08:04:38;;;;;;;7.55;1.90;;;17.10;99.90;;;;;;4983447;28;20046;-77
2022/11/11 08:07:04;;;;;;;5.65;1.77;;;18.00;99.90;;;;;;4981754;28;20061;-77
2022/11/11 08:09:30;;;;;;;6.43;1.98;;;19.50;99.90;;;;;;4980473;28;20068;-79
2022/11/11 08:14:40;;;;;;;7.25;2.30;;;21.50;99.90;;;;;;4984106;28;20049;-77
2022/11/11 08:17:05;;;;;;;7.97;1.95;;;22.10;99.90;;;;;;4984480;28;20030;-74
2022/11/11 08:19:32;;;;;;;7.75;1.63;;;22.30;99.90;;;;;;4983043;28;20046;-75
2022/11/11 08:21:59;;;;;;;4.43;1.98;;;22.70;99.90;;;;;;4982009;28;20131;-74
2022/11/11 08:24:24;;;;;;;6.05;1.60;;;22.60;99.90;;;;;;4962920;28;20042;-74
2022/11/11 08:26:52;;;;;;;5.60;1.60;;;21.70;99.90;;;;;;4980403;28;20037;-75
2022/11/11 08:29:19;;;;;;;8.75;1.83;;;21.40;99.90;;;;;;4981153;28;20483;-74
2022/11/11 08:31:45;;;;;;;5.68;1.70;;;20.30;99.90;;;;;;4979034;28;20042;-74
2022/11/11 08:34:12;;;;;;;6.28;1.83;;;19.60;99.90;;;;;;4978580;28;20034;-75
2022/11/11 08:36:38;;;;;;;5.60;1.48;;;20.80;99.90;;;;;;4982938;28;20035;-74
2022/11/11 08:39:04;;;;;;;6.40;2.00;;;21.70;99.90;;;;;;4978032;28;20053;-75
2022/11/11 08:41:30;;;;;;;10.57;2.10;;;21.10;99.90;;;;;;4981928;28;20035;-74
2022/11/11 08:43:58;;;;;;;6.22;1.73;;;20.60;99.90;;;;;;4980125;28;20501;-74
2022/11/11 08:46:24;;;;;;;4.97;1.88;;;20.40;99.90;;;;;;4972313;28;20038;-75
2022/11/11 08:48:50;;;;;;;8.40;1.95;;;20.30;99.90;;;;;;4978317;28;20030;-75
2022/11/11 08:51:16;;;;;;;5.53;1.60;;;20.10;99.90;;;;;;4996467;28;20600;-75
2022/11/11 08:53:42;;;;;;;7.28;1.92;;;20.10;99.90;;;;;;4979554;28;20026;-75
2022/11/11 08:56:08;;;;;;;8.57;2.78;;;20.20;99.90;;;;;;4981116;28;20454;-75
2022/11/11 08:58:34;;;;;;;8.02;1.70;;;20.30;99.90;;;;;;4979437;28;20074;-74
2022/11/11 09:01:02;;;;;;;7.05;2.05;;;20.30;99.90;;;;;;4974941;28;20046;-74
2022/11/11 09:03:29;;;;;;;5.18;1.80;;;20.40;99.90;;;;;;4978988;28;20064;-73
2022/11/11 09:05:55;;;;;;;;;;;20.50;99.90;;;;;;4978749;28;20091;-75
2022/11/11 09:08:20;;;;;;;9.93;2.28;;;20.70;99.90;;;;;;4969330;28;20000;-74
2022/11/11 09:10:48;;;;;;;8.15;2.63;;;20.80;99.90;;;;;;4979525;28;20053;-73
2022/11/11 09:13:14;;;;;;;5.13;1.58;;;20.80;99.90;;;;;;4978843;28;20088;-74
2022/11/11 09:15:40;;;;;;;8.80;1.67;;;20.80;99.90;;;;;;4983917;28;20066;-75
2022/11/11 09:18:07;;;;;;;6.82;1.92;;;20.90;99.90;;;;;;4980444;28;20037;-75
2022/11/11 09:20:34;;;;;;;8.82;2.67;;;21.00;99.90;;;;;;4978696;28;20399;-74
2022/11/11 09:23:00;;;;;;;6.78;1.90;;;21.20;99.90;;;;;;4976209;28;20113;-76
2022/11/11 09:25:26;;;;;;;6.88;2.05;;;21.50;99.90;;;;;;4981546;28;20145;-74
2022/11/11 09:28:00;;;;;;;10.48;2.53;;;21.90;99.90;;;;;;4986520;28;20397;-74
2022/11/11 09:30:27;;;;;;;8.35;2.28;;;22.30;99.90;;;;;;4986309;28;20501;-77
2022/11/11 09:32:53;;;;;;;10.23;2.25;;;22.40;99.90;;;;;;4987504;28;20043;-77
2022/11/11 09:35:20;;;;;;;6.53;1.85;;;22.90;99.90;;;;;;4997184;28;20586;-75
2022/11/11 09:37:56;;;;;;;4.30;1.80;;;23.10;99.90;;;;;;4987895;28;20042;-78
2022/11/11 09:40:58;;;;;;;5.88;1.83;;;23.30;99.90;;;;;;4987889;28;20490;-77
2022/11/11 09:43:54;;;;;;;7.65;2.15;;;23.30;99.90;;;;;;4987404;28;20042;-77
2022/11/11 09:46:56;;;;;;;11.85;2.47;;;23.20;99.90;;;;;;4986881;28;20018;-77
2022/11/11 09:49:32;;;;;;;8.80;2.38;;;23.50;99.90;;;;;;4967824;28;20056;-77
2022/11/11 09:52:02;;;;;;;6.50;2.20;;;23.50;99.90;;;;;;4997222;28;20038;-77
2022/11/11 09:54:43;;;;;;;7.20;2.83;;;23.80;99.90;;;;;;4984468;28;20039;-78
2022/11/11 09:57:36;;;;;;;5.43;1.90;;;23.80;99.90;;;;;;4997706;28;20115;-78
2022/11/11 10:00:07;;;;;;;9.35;2.70;;;24.00;99.90;;;;;;4982284;28;20070;-77
2022/11/11 10:02:53;;;;;;;9.20;2.42;;;24.00;99.90;;;;;;4996627;28;20098;-77
2022/11/11 10:05:45;;;;;;;9.20;2.55;;;24.20;99.90;;;;;;4982812;28;20035;-77
2022/11/11 10:08:21;;;;;;;6.82;2.42;;;24.30;99.90;;;;;;4971319;28;20051;-77
2022/11/11 10:10:49;;;;;;;10.65;2.30;;;24.40;99.90;;;;;;4995667;28;20035;-77
2022/11/11 10:13:36;;;;;;;8.45;2.95;;;24.60;99.90;;;;;;4980994;28;20038;-77
2022/11/11 10:16:17;;;;;;;8.40;2.53;;;24.70;99.90;;;;;;4986991;28;20023;-78
2022/11/11 10:19:01;;;;;;;10.23;2.75;;;24.90;99.90;;;;;;4981061;28;20046;-78
2022/11/11 10:21:52;;;;;;;7.82;2.20;;;25.10;99.70;;;;;;4998353;28;20054;-77
2022/11/11 10:24:32;;;;;;;11.48;2.95;;;25.30;99.50;;;;;;4977538;28;20047;-77
2022/11/11 10:27:05;;;;;;;5.68;1.58;;;25.50;98.50;;;;;;4986644;28;20125;-77
2022/11/11 10:29:39;;;;;;;4.05;1.33;;;25.40;97.30;;;;;;4982201;28;20482;-78
2022/11/11 10:32:17;;;;;;;5.85;1.48;;;25.30;96.80;;;;;;4981157;28;20034;-76
2022/11/11 10:34:44;;;;;;;6.82;1.70;;;25.40;96.30;;;;;;4969502;28;20724;-77
2022/11/11 10:37:32;;;;;;;4.07;1.73;;;25.50;96.10;;;;;;4987910;28;20116;-77
2022/11/11 10:40:14;;;;;;;6.60;1.42;;;25.40;96.50;;;;;;4984950;28;20049;-77
2022/11/11 10:42:40;;;;;;;5.55;1.65;;;25.20;97.20;;;;;;4981692;28;20038;-77
2022/11/11 10:45:17;;;;;;;4.18;1.42;;;25.40;97.60;;;;;;4997528;28;20033;-78
2022/11/11 10:48:25;;;;;;;5.20;1.52;;;25.60;98.00;;;;;;4971121;28;20040;-78
2022/11/11 10:50:53;;;;;;;;;;;25.80;97.80;;;;;;4983593;28;20476;-79
2022/11/11 10:53:22;;;;;;;3.60;1.42;;;25.70;97.80;;;;;;4996780;28;19914;-77
2022/11/11 10:56:28;;;;;;;5.57;1.35;;;25.60;97.90;;;;;;4998511;28;20100;-78
2022/11/11 10:59:06;;;;;;;6.90;1.75;;;25.70;97.60;;;;;;4968983;28;20047;-78
2022/11/11 11:01:48;;;;;;;4.72;1.48;;;26.10;97.40;;;;;;4984182;28;20150;-78
2022/11/11 11:04:21;;;;;;;4.13;1.55;;;26.50;97.50;;;;;;4982786;28;20045;-78
2022/11/11 11:06:50;;;;;;;6.20;1.50;;;26.50;97.50;;;;;;4973577;28;20129;-78
2022/11/11 11:09:26;;;;;;;4.15;1.85;;;26.60;97.60;;;;;;4998147;28;20066;-78
2022/11/11 11:11:58;;;;;;;7.22;1.50;;;26.80;97.20;;;;;;4986564;28;20039;-77
2022/11/11 11:14:32;;;;;;;4.90;1.40;;;25.80;97.60;;;;;;4996587;28;20122;-78
2022/11/11 11:17:06;;;;;;;8.00;1.50;;;25.90;97.70;;;;;;4985901;28;20113;-77
2022/11/11 11:19:32;;;;;;;5.40;1.25;;;26.10;97.50;;;;;;4985108;28;20154;-79
2022/11/11 11:22:00;;;;;;;6.43;1.63;;;26.60;97.70;;;;;;4986322;28;20034;-79
2022/11/11 11:24:31;;;;;;;4.22;1.55;;;26.90;97.50;;;;;;4977849;28;20053;-78
2022/11/11 11:27:00;;;;;;;4.65;1.85;;;27.10;97.20;;;;;;4988012;28;20374;-77
2022/11/11 11:29:25;;;;;;;5.28;1.67;;;27.30;96.50;;;;;;4983916;28;20636;-79
2022/11/11 11:31:51;;;;;;;3.25;1.30;;;27.50;96.50;;;;;;5003840;28;20070;-78
2022/11/11 11:34:17;;;;;;;;;;;27.70;96.20;;;;;;4986668;28;20034;-78
2022/11/11 11:36:43;;;;;;;4.75;1.30;;;27.90;96.00;;;;;;4993044;28;20262;-76
2022/11/11 11:39:10;;;;;;;4.75;1.52;;;27.90;96.20;;;;;;4985675;28;20073;-75
2022/11/11 11:41:49;;;;;;;6.10;1.65;;;28.00;96.20;;;;;;4976821;28;20043;-75
2022/11/11 11:44:43;;;;;;;4.32;1.17;;;27.80;96.30;;;;;;4979830;28;20034;-76
2022/11/11 11:47:49;;;;;;;5.50;2.00;;;28.00;96.70;;;;;;4975298;28;20043;-74
2022/11/11 11:50:30;;;;;;;3.67;1.50;;;28.50;96.40;;;;;;4978462;28;20038;-75
2022/11/11 11:53:43;;;;;;;4.38;1.38;;;28.70;95.90;;;;;;4982043;28;20174;-76
2022/11/11 11:56:32;;;;;;;4.07;1.42;;;28.90;95.40;;;;;;4990492;28;20038;-76
2022/11/11 11:59:32;;;;;;;4.22;1.55;;;28.70;95.30;;;;;;4980950;28;20117;-75
2022/11/11 12:02:28;;;;;;;3.78;1.67;;;28.90;95.20;;;;;;4984881;28;20448;-76
2022/11/11 12:05:17;;;;;;;4.38;1.58;;;29.00;94.90;;;;;;4979100;28;20045;-76
2022/11/11 12:07:52;;;;;;;3.80;1.63;;;29.40;94.70;;;;;;4979775;28;20042;-76
2022/11/11 12:10:44;;;;;;;6.50;1.80;;;29.20;94.70;;;;;;4983497;28;20038;-75
2022/11/11 12:13:48;;;;;;;5.40;1.65;;;29.30;95.00;;;;;;4997486;28;20130;-75
2022/11/11 12:16:51;;;;;;;4.03;1.63;;;28.00;95.40;;;;;;4978524;28;20564;-75
2022/11/11 12:19:34;;;;;;;7.15;1.33;;;27.80;96.00;;;;;;4992213;28;20181;-76
2022/11/11 12:22:19;;;;;;;5.00;1.70;;;27.00;97.00;;;;;;4981241;28;20039;-76
2022/11/11 12:25:03;;;;;;;5.28;2.13;;;28.30;96.50;;;;;;4980548;28;20058;-74
2022/11/11 12:27:38;;;;;;;7.03;2.15;;;28.80;96.20;;;;;;4978994;28;20045;-76
2022/11/11 12:30:18;;;;;;;9.55;2.10;;;29.30;96.00;;;;;;4996656;28;20058;-76
2022/11/11 12:33:03;;;;;;;6.38;1.65;;;29.60;95.60;;;;;;4984603;28;20100;-76
2022/11/11 12:35:47;;;;;;;4.45;2.03;;;29.30;95.50;;;;;;4963835;28;20039;-75
2022/11/11 12:38:40;;;;;;;7.47;2.55;;;29.10;95.70;;;;;;4989309;28;20470;-79
2022/11/11 12:41:41;;;;;;;5.22;2.22;;;29.50;95.70;;;;;;4985076;28;20411;-79
2022/11/11 12:44:12;;;;;;;5.47;2.13;;;29.20;96.00;;;;;;4998655;28;20062;-79
2022/11/11 12:46:45;;;;;;;7.38;2.55;;;29.60;95.90;;;;;;4986207;28;20049;-79
2022/11/11 12:49:28;;;;;;;6.18;2.47;;;30.00;96.10;;;;;;4983732;28;20050;-78
2022/11/11 12:52:30;;;;;;;5.22;1.95;;;30.30;96.30;;;;;;5001573;28;20096;-79
2022/11/11 12:55:02;;;;;;;;;;;28.30;97.90;;;;;;4992550;28;20030;-79
2022/11/11 12:57:35;;;;;;;7.22;2.10;;;27.30;99.90;;;;;;4986099;28;20464;-78
2022/11/11 13:00:19;;;;;;;6.22;2.03;;;28.60;99.30;;;;;;4975069;28;20153;-78
2022/11/11 13:02:54;;;;;;;6.40;2.03;;;29.20;98.40;;;;;;4983592;28;20041;-78
2022/11/11 13:05:24;;;;;;;7.38;2.13;;;30.40;97.40;;;;;;4987230;28;20069;-79
2022/11/11 13:08:07;;;;;;;9.95;2.28;;;31.00;96.60;;;;;;4991559;28;20038;-78
2022/11/11 13:10:36;;;;;;;8.00;2.35;;;30.60;96.20;;;;;;4995551;28;20038;-80
2022/11/11 13:13:32;;;;;;;6.60;1.95;;;30.40;96.90;;;;;;4997278;28;20030;-79
2022/11/11 13:16:00;;;;;;;10.75;2.45;;;30.30;97.00;;;;;;4994250;28;20038;-80
2022/11/11 13:18:37;;;;;;;6.40;2.38;;;31.10;96.40;;;;;;4993894;28;20046;-79
2022/11/11 13:21:14;;;;;;;6.72;2.35;;;31.50;95.80;;;;;;4992218;28;20145;-79
2022/11/11 13:23:40;;;;;;;8.32;2.90;;;31.90;95.30;;;;;;4992514;28;20034;-77
2022/11/11 13:26:37;;;;;;;6.90;2.03;;;31.70;95.30;;;;;;4983904;28;20467;-79
2022/11/11 13:29:38;;;;;;;7.38;2.33;;;31.00;96.00;;;;;;4986984;28;20477;-77
2022/11/11 13:32:08;;;;;;;8.98;2.22;;;31.30;96.00;;;;;;4972457;28;20049;-78
2022/11/11 13:34:35;;;;;;;7.10;2.78;;;31.20;96.30;;;;;;4977966;28;20042;-78
2022/11/11 13:37:06;;;;;;;5.68;2.50;;;31.00;96.00;;;;;;4989490;28;20524;-77
2022/11/11 13:39:42;;;;;;;7.18;2.35;;;31.10;95.80;;;;;;4973423;28;20054;-79
2022/11/11 13:42:12;;;;;;;5.60;2.30;;;31.50;95.60;;;;;;4955857;28;20508;-78
2022/11/11 13:45:02;;;;;;;7.50;2.42;;;31.20;95.60;;;;;;4984088;28;20046;-78
2022/11/11 13:47:37;;;;;;;5.03;2.20;;;31.70;95.10;;;;;;4977644;28;20037;-79
2022/11/11 13:50:37;;;;;;;7.32;2.15;;;31.60;95.00;;;;;;4987813;28;20042;-79
2022/11/11 13:53:06;;;;;;;6.45;2.63;;;31.70;95.00;;;;;;4987767;28;20025;-79
2022/11/11 13:55:40;;;;;;;6.20;2.58;;;32.00;94.70;;;;;;4968826;28;20035;-79
2022/11/11 13:58:16;;;;;;;8.40;2.50;;;31.90;94.40;;;;;;4979094;28;20038;-78
2022/11/11 14:00:42;;;;;;;6.80;2.63;;;31.80;94.50;;;;;;4987378;28;20057;-78
2022/11/11 14:03:17;;;;;;;6.20;1.92;;;31.60;94.50;;;;;;4986521;28;20097;-77
2022/11/11 14:05:43;;;;;;;7.40;2.78;;;31.30;94.40;;;;;;4992425;28;20027;-78
2022/11/11 14:08:29;;;;;;;7.63;3.17;;;31.00;94.70;;;;;;4981837;28;20513;-78
2022/11/11 14:10:59;;;;;;;7.22;2.10;;;31.10;94.70;;;;;;4983019;28;20077;-78
2022/11/11 14:13:37;;;;;;;8.55;2.63;;;31.20;94.80;;;;;;4983265;28;20500;-79
2022/11/11 14:16:03;;;;;;;6.55;2.65;;;31.30;94.80;;;;;;4986098;28;20030;-80
2022/11/11 14:18:37;;;;;;;6.78;2.22;;;31.30;94.90;;;;;;4980165;28;20057;-78
2022/11/11 14:21:03;;;;;;;11.82;3.00;;;30.90;95.00;;;;;;4987335;28;20046;-78